sensor_id;sensor_type;location;lat;lon;timestamp;temperature;humidity
6008;DHT22;3032;49.484;11.112;2023-06-04T00:00:26;13.80;51.00
6008;DHT22;3032;49.484;11.112;2023-06-04T00:02:52;13.70;51.00
6008;DHT22;3032;49.484;11.112;2023-06-04T00:05:17;13.40;51.50
6008;DHT22;3032;49.484;11.112;2023-06-04T00:07:43;13.20;52.00
6008;DHT22;3032;49.484;11.112;2023-06-04T00:10:09;13.20;52.20
6008;DHT22;3032;49.484;11.112;2023-06-04T00:12:34;13.30;52.00
6008;DHT22;3032;49.484;11.112;2023-06-04T00:15:00;13.30;51.90
6008;DHT22;3032;49.484;11.112;2023-06-04T00:17:25;13.20;52.20
6008;DHT22;3032;49.484;11.112;2023-06-04T00:19:51;13.30;52.00
6008;DHT22;3032;49.484;11.112;2023-06-04T00:22:17;13.20;52.00
6008;DHT22;3032;49.484;11.112;2023-06-04T00:24:42;13.50;52.10
6008;DHT22;3032;49.484;11.112;2023-06-04T00:27:08;13.20;52.20
6008;DHT22;3032;49.484;11.112;2023-06-04T00:29:34;13.10;52.20
6008;DHT22;3032;49.484;11.112;2023-06-04T00:32:00;13.20;51.90
6008;DHT22;3032;49.484;11.112;2023-06-04T00:34:25;13.20;52.00
6008;DHT22;3032;49.484;11.112;2023-06-04T00:36:51;13.10;52.20
6008;DHT22;3032;49.484;11.112;2023-06-04T00:39:17;13.00;53.00
6008;DHT22;3032;49.484;11.112;2023-06-04T00:41:42;13.00;52.70
6008;DHT22;3032;49.484;11.112;2023-06-04T00:44:08;13.10;52.80
6008;DHT22;3032;49.484;11.112;2023-06-04T00:46:34;13.20;52.80
6008;DHT22;3032;49.484;11.112;2023-06-04T00:49:01;13.20;52.80
6008;DHT22;3032;49.484;11.112;2023-06-04T00:51:30;13.30;52.80
6008;DHT22;3032;49.484;11.112;2023-06-04T00:53:56;13.30;52.60
6008;DHT22;3032;49.484;11.112;2023-06-04T00:56:21;13.10;53.30
6008;DHT22;3032;49.484;11.112;2023-06-04T00:58:47;13.10;53.40
6008;DHT22;3032;49.484;11.112;2023-06-04T01:01:39;13.10;53.20
6008;DHT22;3032;49.484;11.112;2023-06-04T01:04:16;13.10;53.10
6008;DHT22;3032;49.484;11.112;2023-06-04T01:06:45;13.00;53.40
6008;DHT22;3032;49.484;11.112;2023-06-04T01:09:13;12.70;53.80
6008;DHT22;3032;49.484;11.112;2023-06-04T01:11:39;12.60;54.20
6008;DHT22;3032;49.484;11.112;2023-06-04T01:14:08;12.50;54.80
6008;DHT22;3032;49.484;11.112;2023-06-04T01:19:57;12.70;54.70
6008;DHT22;3032;49.484;11.112;2023-06-04T01:27:56;12.60;54.90
6008;DHT22;3032;49.484;11.112;2023-06-04T01:30:33;12.60;54.80
6008;DHT22;3032;49.484;11.112;2023-06-04T01:32:59;12.80;54.60
6008;DHT22;3032;49.484;11.112;2023-06-04T01:35:26;13.00;54.50
6008;DHT22;3032;49.484;11.112;2023-06-04T01:37:52;13.30;54.10
6008;DHT22;3032;49.484;11.112;2023-06-04T01:40:19;13.50;54.90
6008;DHT22;3032;49.484;11.112;2023-06-04T01:42:45;13.60;54.50
6008;DHT22;3032;49.484;11.112;2023-06-04T01:45:11;13.70;54.20
6008;DHT22;3032;49.484;11.112;2023-06-04T01:47:37;13.70;53.70
6008;DHT22;3032;49.484;11.112;2023-06-04T01:50:06;13.70;54.10
6008;DHT22;3032;49.484;11.112;2023-06-04T01:52:38;13.70;54.40
6008;DHT22;3032;49.484;11.112;2023-06-04T01:55:05;13.70;54.10
6008;DHT22;3032;49.484;11.112;2023-06-04T01:57:32;13.70;53.90
6008;DHT22;3032;49.484;11.112;2023-06-04T01:59:58;13.60;54.50
6008;DHT22;3032;49.484;11.112;2023-06-04T02:02:23;13.60;54.30
6008;DHT22;3032;49.484;11.112;2023-06-04T02:04:50;13.50;54.40
6008;DHT22;3032;49.484;11.112;2023-06-04T02:07:18;13.50;55.00
6008;DHT22;3032;49.484;11.112;2023-06-04T02:09:48;13.50;55.10
6008;DHT22;3032;49.484;11.112;2023-06-04T02:12:15;13.50;54.90
6008;DHT22;3032;49.484;11.112;2023-06-04T02:14:41;13.40;55.80
6008;DHT22;3032;49.484;11.112;2023-06-04T02:17:07;13.30;56.10
6008;DHT22;3032;49.484;11.112;2023-06-04T02:19:40;13.30;56.30
6008;DHT22;3032;49.484;11.112;2023-06-04T02:22:11;13.20;56.60
6008;DHT22;3032;49.484;11.112;2023-06-04T02:24:37;13.10;56.80
6008;DHT22;3032;49.484;11.112;2023-06-04T02:27:04;13.00;57.00
6008;DHT22;3032;49.484;11.112;2023-06-04T02:29:30;13.00;57.00
6008;DHT22;3032;49.484;11.112;2023-06-04T02:31:56;13.00;57.20
6008;DHT22;3032;49.484;11.112;2023-06-04T02:34:22;12.90;57.70
6008;DHT22;3032;49.484;11.112;2023-06-04T02:36:48;12.80;57.30
6008;DHT22;3032;49.484;11.112;2023-06-04T02:39:18;12.70;57.50
6008;DHT22;3032;49.484;11.112;2023-06-04T02:41:44;12.70;57.90
6008;DHT22;3032;49.484;11.112;2023-06-04T02:44:10;12.70;58.80
6008;DHT22;3032;49.484;11.112;2023-06-04T02:46:36;12.60;59.20
6008;DHT22;3032;49.484;11.112;2023-06-04T02:49:02;12.60;59.80
6008;DHT22;3032;49.484;11.112;2023-06-04T02:51:28;12.60;59.80
6008;DHT22;3032;49.484;11.112;2023-06-04T02:53:54;12.40;60.70
6008;DHT22;3032;49.484;11.112;2023-06-04T02:56:20;12.30;61.00
6008;DHT22;3032;49.484;11.112;2023-06-04T02:58:54;12.30;60.90
6008;DHT22;3032;49.484;11.112;2023-06-04T03:01:24;12.20;61.90
6008;DHT22;3032;49.484;11.112;2023-06-04T03:03:51;12.20;63.10
6008;DHT22;3032;49.484;11.112;2023-06-04T03:06:18;12.10;63.40
6008;DHT22;3032;49.484;11.112;2023-06-04T03:08:46;12.00;63.60
6008;DHT22;3032;49.484;11.112;2023-06-04T03:11:12;12.00;63.80
6008;DHT22;3032;49.484;11.112;2023-06-04T03:13:38;12.00;63.80
6008;DHT22;3032;49.484;11.112;2023-06-04T03:16:04;11.90;64.20
6008;DHT22;3032;49.484;11.112;2023-06-04T03:18:35;11.90;64.50
6008;DHT22;3032;49.484;11.112;2023-06-04T03:21:02;11.80;64.90
6008;DHT22;3032;49.484;11.112;2023-06-04T03:23:28;11.80;65.20
6008;DHT22;3032;49.484;11.112;2023-06-04T03:25:53;11.70;65.30
6008;DHT22;3032;49.484;11.112;2023-06-04T03:28:19;11.70;65.40
6008;DHT22;3032;49.484;11.112;2023-06-04T03:30:44;11.70;65.70
6008;DHT22;3032;49.484;11.112;2023-06-04T03:33:10;11.70;65.90
6008;DHT22;3032;49.484;11.112;2023-06-04T03:35:36;11.80;65.90
6008;DHT22;3032;49.484;11.112;2023-06-04T03:38:01;11.80;66.30
6008;DHT22;3032;49.484;11.112;2023-06-04T03:40:27;11.80;66.80
6008;DHT22;3032;49.484;11.112;2023-06-04T03:42:52;11.80;66.90
6008;DHT22;3032;49.484;11.112;2023-06-04T03:45:18;11.80;68.10
6008;DHT22;3032;49.484;11.112;2023-06-04T03:47:43;11.90;69.10
6008;DHT22;3032;49.484;11.112;2023-06-04T03:50:09;12.00;69.40
6008;DHT22;3032;49.484;11.112;2023-06-04T03:52:35;12.00;69.80
6008;DHT22;3032;49.484;11.112;2023-06-04T03:55:01;12.00;70.50
6008;DHT22;3032;49.484;11.112;2023-06-04T03:57:27;12.40;70.60
6008;DHT22;3032;49.484;11.112;2023-06-04T03:59:52;12.10;70.90
6008;DHT22;3032;49.484;11.112;2023-06-04T04:02:18;12.10;70.30
6008;DHT22;3032;49.484;11.112;2023-06-04T04:04:44;12.20;69.80
6008;DHT22;3032;49.484;11.112;2023-06-04T04:07:10;12.20;69.70
6008;DHT22;3032;49.484;11.112;2023-06-04T04:09:36;12.30;69.80
6008;DHT22;3032;49.484;11.112;2023-06-04T04:12:02;12.40;69.50
6008;DHT22;3032;49.484;11.112;2023-06-04T04:14:27;12.40;69.20
6008;DHT22;3032;49.484;11.112;2023-06-04T04:16:53;13.00;69.00
6008;DHT22;3032;49.484;11.112;2023-06-04T04:19:18;12.70;67.60
6008;DHT22;3032;49.484;11.112;2023-06-04T04:21:44;12.80;67.10
6008;DHT22;3032;49.484;11.112;2023-06-04T04:24:22;12.80;67.60
6008;DHT22;3032;49.484;11.112;2023-06-04T04:26:48;12.80;70.20
6008;DHT22;3032;49.484;11.112;2023-06-04T04:29:13;13.00;69.70
6008;DHT22;3032;49.484;11.112;2023-06-04T04:31:39;13.70;69.60
6008;DHT22;3032;49.484;11.112;2023-06-04T04:34:07;13.90;69.20
6008;DHT22;3032;49.484;11.112;2023-06-04T04:36:34;15.20;66.80
6008;DHT22;3032;49.484;11.112;2023-06-04T04:39:01;17.00;63.40
6008;DHT22;3032;49.484;11.112;2023-06-04T04:41:27;18.90;60.70
6008;DHT22;3032;49.484;11.112;2023-06-04T04:43:53;20.20;57.50
6008;DHT22;3032;49.484;11.112;2023-06-04T04:46:19;21.10;56.00
6008;DHT22;3032;49.484;11.112;2023-06-04T04:48:44;21.80;54.40
6008;DHT22;3032;49.484;11.112;2023-06-04T04:51:10;22.80;53.90
6008;DHT22;3032;49.484;11.112;2023-06-04T04:53:36;23.00;53.10
6008;DHT22;3032;49.484;11.112;2023-06-04T04:56:01;23.20;52.50
6008;DHT22;3032;49.484;11.112;2023-06-04T04:58:27;24.10;52.40
6008;DHT22;3032;49.484;11.112;2023-06-04T05:00:52;24.60;52.20
6008;DHT22;3032;49.484;11.112;2023-06-04T05:03:18;25.20;51.10
6008;DHT22;3032;49.484;11.112;2023-06-04T05:05:43;26.10;49.00
6008;DHT22;3032;49.484;11.112;2023-06-04T05:08:09;26.90;48.30
6008;DHT22;3032;49.484;11.112;2023-06-04T05:10:34;27.50;46.10
6008;DHT22;3032;49.484;11.112;2023-06-04T05:13:01;27.50;45.90
6008;DHT22;3032;49.484;11.112;2023-06-04T05:15:27;27.90;47.20
6008;DHT22;3032;49.484;11.112;2023-06-04T05:17:53;28.60;46.10
6008;DHT22;3032;49.484;11.112;2023-06-04T05:20:22;28.10;42.40
6008;DHT22;3032;49.484;11.112;2023-06-04T05:22:48;27.10;42.10
6008;DHT22;3032;49.484;11.112;2023-06-04T05:25:14;27.10;43.70
6008;DHT22;3032;49.484;11.112;2023-06-04T05:27:40;27.60;43.00
6008;DHT22;3032;49.484;11.112;2023-06-04T05:30:06;27.30;41.70
6008;DHT22;3032;49.484;11.112;2023-06-04T05:32:32;25.80;43.30
6008;DHT22;3032;49.484;11.112;2023-06-04T05:34:59;26.00;43.80
6008;DHT22;3032;49.484;11.112;2023-06-04T05:37:25;27.10;43.10
6008;DHT22;3032;49.484;11.112;2023-06-04T05:39:56;28.10;42.90
6008;DHT22;3032;49.484;11.112;2023-06-04T05:42:22;28.20;42.10
6008;DHT22;3032;49.484;11.112;2023-06-04T05:44:47;28.50;42.10
6008;DHT22;3032;49.484;11.112;2023-06-04T05:47:14;28.60;41.50
6008;DHT22;3032;49.484;11.112;2023-06-04T05:49:40;29.40;41.50
6008;DHT22;3032;49.484;11.112;2023-06-04T05:52:06;29.70;40.60
6008;DHT22;3032;49.484;11.112;2023-06-04T05:54:31;29.70;40.50
6008;DHT22;3032;49.484;11.112;2023-06-04T05:56:58;29.50;41.00
6008;DHT22;3032;49.484;11.112;2023-06-04T05:59:23;29.90;41.30
6008;DHT22;3032;49.484;11.112;2023-06-04T06:01:49;29.10;41.30
6008;DHT22;3032;49.484;11.112;2023-06-04T06:04:15;28.80;41.50
6008;DHT22;3032;49.484;11.112;2023-06-04T06:06:42;29.90;40.70
6008;DHT22;3032;49.484;11.112;2023-06-04T06:09:09;29.80;40.20
6008;DHT22;3032;49.484;11.112;2023-06-04T06:11:35;29.50;39.90
6008;DHT22;3032;49.484;11.112;2023-06-04T06:14:01;28.40;41.60
6008;DHT22;3032;49.484;11.112;2023-06-04T06:16:26;28.60;41.90
6008;DHT22;3032;49.484;11.112;2023-06-04T06:18:52;29.30;41.40
6008;DHT22;3032;49.484;11.112;2023-06-04T06:21:19;29.80;41.00
6008;DHT22;3032;49.484;11.112;2023-06-04T06:23:45;30.50;40.30
6008;DHT22;3032;49.484;11.112;2023-06-04T06:26:10;29.40;40.60
6008;DHT22;3032;49.484;11.112;2023-06-04T06:28:37;29.80;40.50
6008;DHT22;3032;49.484;11.112;2023-06-04T06:31:03;29.10;40.30
6008;DHT22;3032;49.484;11.112;2023-06-04T06:33:28;28.60;40.40
6008;DHT22;3032;49.484;11.112;2023-06-04T06:35:54;28.40;41.00
6008;DHT22;3032;49.484;11.112;2023-06-04T06:38:20;27.40;41.70
6008;DHT22;3032;49.484;11.112;2023-06-04T06:40:45;27.80;42.80
6008;DHT22;3032;49.484;11.112;2023-06-04T06:43:11;28.80;40.90
6008;DHT22;3032;49.484;11.112;2023-06-04T06:45:37;28.60;41.60
6008;DHT22;3032;49.484;11.112;2023-06-04T06:48:03;29.60;42.10
6008;DHT22;3032;49.484;11.112;2023-06-04T06:50:29;29.70;40.40
6008;DHT22;3032;49.484;11.112;2023-06-04T06:52:55;29.70;40.90
6008;DHT22;3032;49.484;11.112;2023-06-04T06:55:20;30.40;40.40
6008;DHT22;3032;49.484;11.112;2023-06-04T06:57:46;31.30;40.00
6008;DHT22;3032;49.484;11.112;2023-06-04T07:00:12;31.60;39.80
6008;DHT22;3032;49.484;11.112;2023-06-04T07:02:37;31.70;38.40
6008;DHT22;3032;49.484;11.112;2023-06-04T07:05:03;30.10;38.90
6008;DHT22;3032;49.484;11.112;2023-06-04T07:07:29;30.60;40.00
6008;DHT22;3032;49.484;11.112;2023-06-04T07:09:54;30.10;39.50
6008;DHT22;3032;49.484;11.112;2023-06-04T07:12:20;29.30;40.70
6008;DHT22;3032;49.484;11.112;2023-06-04T07:14:46;28.90;40.30
6008;DHT22;3032;49.484;11.112;2023-06-04T07:17:12;27.70;41.80
6008;DHT22;3032;49.484;11.112;2023-06-04T07:19:37;27.80;41.90
6008;DHT22;3032;49.484;11.112;2023-06-04T07:22:03;28.60;41.70
6008;DHT22;3032;49.484;11.112;2023-06-04T07:24:29;29.00;41.30
6008;DHT22;3032;49.484;11.112;2023-06-04T07:26:54;29.70;41.40
6008;DHT22;3032;49.484;11.112;2023-06-04T07:29:20;31.60;40.10
6008;DHT22;3032;49.484;11.112;2023-06-04T07:31:45;32.90;40.10
6008;DHT22;3032;49.484;11.112;2023-06-04T07:34:11;34.10;38.10
6008;DHT22;3032;49.484;11.112;2023-06-04T07:36:37;35.10;36.80
6008;DHT22;3032;49.484;11.112;2023-06-04T07:39:02;35.50;36.50
6008;DHT22;3032;49.484;11.112;2023-06-04T07:41:30;34.80;36.70
6008;DHT22;3032;49.484;11.112;2023-06-04T07:43:55;35.30;36.30
6008;DHT22;3032;49.484;11.112;2023-06-04T07:46:21;35.10;35.80
6008;DHT22;3032;49.484;11.112;2023-06-04T07:48:46;35.50;36.20
6008;DHT22;3032;49.484;11.112;2023-06-04T07:51:13;35.90;36.00
6008;DHT22;3032;49.484;11.112;2023-06-04T07:53:39;35.60;35.50
6008;DHT22;3032;49.484;11.112;2023-06-04T07:56:05;35.50;36.20
6008;DHT22;3032;49.484;11.112;2023-06-04T07:58:31;36.10;35.80
6008;DHT22;3032;49.484;11.112;2023-06-04T08:00:57;37.40;35.80
6008;DHT22;3032;49.484;11.112;2023-06-04T08:03:22;37.90;34.30
6008;DHT22;3032;49.484;11.112;2023-06-04T08:05:48;37.70;34.20
6008;DHT22;3032;49.484;11.112;2023-06-04T08:08:14;37.30;33.90
6008;DHT22;3032;49.484;11.112;2023-06-04T08:10:40;37.70;34.10
6008;DHT22;3032;49.484;11.112;2023-06-04T08:13:06;37.40;34.10
6008;DHT22;3032;49.484;11.112;2023-06-04T08:15:31;37.50;35.00
6008;DHT22;3032;49.484;11.112;2023-06-04T08:17:57;37.90;34.30
6008;DHT22;3032;49.484;11.112;2023-06-04T08:20:23;38.70;33.90
6008;DHT22;3032;49.484;11.112;2023-06-04T08:22:49;39.10;32.40
6008;DHT22;3032;49.484;11.112;2023-06-04T08:25:14;37.70;32.90
6008;DHT22;3032;49.484;11.112;2023-06-04T08:27:41;36.90;34.50
6008;DHT22;3032;49.484;11.112;2023-06-04T08:30:07;37.00;33.70
6008;DHT22;3032;49.484;11.112;2023-06-04T08:32:33;37.60;33.80
6008;DHT22;3032;49.484;11.112;2023-06-04T08:34:58;38.40;33.70
6008;DHT22;3032;49.484;11.112;2023-06-04T08:37:24;39.10;32.00
6008;DHT22;3032;49.484;11.112;2023-06-04T08:39:50;38.40;32.60
6008;DHT22;3032;49.484;11.112;2023-06-04T08:42:22;38.00;33.30
6008;DHT22;3032;49.484;11.112;2023-06-04T08:44:52;36.30;32.50
6008;DHT22;3032;49.484;11.112;2023-06-04T08:47:19;36.70;33.30
6008;DHT22;3032;49.484;11.112;2023-06-04T08:49:49;36.40;32.90
6008;DHT22;3032;49.484;11.112;2023-06-04T08:52:16;37.60;32.50
6008;DHT22;3032;49.484;11.112;2023-06-04T08:54:41;37.60;32.20
6008;DHT22;3032;49.484;11.112;2023-06-04T08:57:08;37.60;32.20
6008;DHT22;3032;49.484;11.112;2023-06-04T08:59:34;38.00;31.30
6008;DHT22;3032;49.484;11.112;2023-06-04T09:02:00;35.70;32.00
6008;DHT22;3032;49.484;11.112;2023-06-04T09:04:26;35.30;31.80
6008;DHT22;3032;49.484;11.112;2023-06-04T09:06:53;34.30;32.10
6008;DHT22;3032;49.484;11.112;2023-06-04T09:09:20;34.30;31.90
6008;DHT22;3032;49.484;11.112;2023-06-04T09:11:55;34.30;31.80
6008;DHT22;3032;49.484;11.112;2023-06-04T09:14:21;34.30;32.30
6008;DHT22;3032;49.484;11.112;2023-06-04T09:16:52;35.40;32.70
6008;DHT22;3032;49.484;11.112;2023-06-04T09:19:19;36.40;32.30
6008;DHT22;3032;49.484;11.112;2023-06-04T09:21:52;35.80;31.90
6008;DHT22;3032;49.484;11.112;2023-06-04T09:24:19;35.90;33.00
6008;DHT22;3032;49.484;11.112;2023-06-04T09:26:45;36.00;32.70
6008;DHT22;3032;49.484;11.112;2023-06-04T09:29:10;37.20;32.60
6008;DHT22;3032;49.484;11.112;2023-06-04T09:31:36;38.50;30.20
6008;DHT22;3032;49.484;11.112;2023-06-04T09:34:03;38.50;30.40
6008;DHT22;3032;49.484;11.112;2023-06-04T09:36:35;38.60;30.00
6008;DHT22;3032;49.484;11.112;2023-06-04T09:39:03;38.70;30.80
6008;DHT22;3032;49.484;11.112;2023-06-04T09:41:30;37.90;30.50
6008;DHT22;3032;49.484;11.112;2023-06-04T09:44:00;36.20;30.20
6008;DHT22;3032;49.484;11.112;2023-06-04T09:46:28;35.40;31.50
6008;DHT22;3032;49.484;11.112;2023-06-04T09:49:02;35.10;31.40
6008;DHT22;3032;49.484;11.112;2023-06-04T09:51:29;34.70;32.10
6008;DHT22;3032;49.484;11.112;2023-06-04T09:53:56;34.60;31.40
6008;DHT22;3032;49.484;11.112;2023-06-04T09:56:22;34.10;31.40
6008;DHT22;3032;49.484;11.112;2023-06-04T09:58:49;33.00;30.20
6008;DHT22;3032;49.484;11.112;2023-06-04T10:01:15;31.80;33.20
6008;DHT22;3032;49.484;11.112;2023-06-04T10:03:46;31.60;31.80
6008;DHT22;3032;49.484;11.112;2023-06-04T10:06:15;31.40;32.60
6008;DHT22;3032;49.484;11.112;2023-06-04T10:08:42;32.60;33.60
6008;DHT22;3032;49.484;11.112;2023-06-04T10:11:09;32.90;31.80
6008;DHT22;3032;49.484;11.112;2023-06-04T10:13:47;32.20;31.20
6008;DHT22;3032;49.484;11.112;2023-06-04T10:16:13;32.60;31.40
6008;DHT22;3032;49.484;11.112;2023-06-04T10:18:39;33.40;31.90
6008;DHT22;3032;49.484;11.112;2023-06-04T10:21:06;34.60;31.60
6008;DHT22;3032;49.484;11.112;2023-06-04T10:23:33;34.30;30.60
6008;DHT22;3032;49.484;11.112;2023-06-04T10:25:59;33.80;31.30
6008;DHT22;3032;49.484;11.112;2023-06-04T10:28:26;33.40;30.00
6008;DHT22;3032;49.484;11.112;2023-06-04T10:30:52;33.00;30.00
6008;DHT22;3032;49.484;11.112;2023-06-04T10:33:19;32.20;31.50
6008;DHT22;3032;49.484;11.112;2023-06-04T10:35:45;32.10;31.60
6008;DHT22;3032;49.484;11.112;2023-06-04T10:38:12;32.10;31.30
6008;DHT22;3032;49.484;11.112;2023-06-04T10:40:47;31.70;31.60
6008;DHT22;3032;49.484;11.112;2023-06-04T10:43:13;32.10;31.60
6008;DHT22;3032;49.484;11.112;2023-06-04T10:45:40;33.20;30.70
6008;DHT22;3032;49.484;11.112;2023-06-04T10:48:07;34.10;30.90
6008;DHT22;3032;49.484;11.112;2023-06-04T10:50:35;34.40;30.60
6008;DHT22;3032;49.484;11.112;2023-06-04T10:53:01;35.10;31.00
6008;DHT22;3032;49.484;11.112;2023-06-04T10:55:29;35.40;29.30
6008;DHT22;3032;49.484;11.112;2023-06-04T10:57:57;35.30;29.80
6008;DHT22;3032;49.484;11.112;2023-06-04T11:00:37;35.10;29.50
6008;DHT22;3032;49.484;11.112;2023-06-04T11:03:05;34.40;29.30
6008;DHT22;3032;49.484;11.112;2023-06-04T11:05:58;34.00;29.60
6008;DHT22;3032;49.484;11.112;2023-06-04T11:08:29;33.70;30.50
6008;DHT22;3032;49.484;11.112;2023-06-04T11:10:55;33.00;29.70
6008;DHT22;3032;49.484;11.112;2023-06-04T11:13:27;33.10;30.30
6008;DHT22;3032;49.484;11.112;2023-06-04T11:15:52;33.80;30.10
6008;DHT22;3032;49.484;11.112;2023-06-04T11:18:20;33.70;29.80
6008;DHT22;3032;49.484;11.112;2023-06-04T11:20:57;34.30;30.50
6008;DHT22;3032;49.484;11.112;2023-06-04T11:23:23;35.00;30.30
6008;DHT22;3032;49.484;11.112;2023-06-04T11:25:52;35.40;30.80
6008;DHT22;3032;49.484;11.112;2023-06-04T11:28:18;36.20;29.90
6008;DHT22;3032;49.484;11.112;2023-06-04T11:30:56;36.50;29.10
6008;DHT22;3032;49.484;11.112;2023-06-04T11:33:21;36.50;28.80
6008;DHT22;3032;49.484;11.112;2023-06-04T11:35:47;35.00;29.40
6008;DHT22;3032;49.484;11.112;2023-06-04T11:38:12;33.70;29.50
6008;DHT22;3032;49.484;11.112;2023-06-04T11:40:38;33.10;30.40
6008;DHT22;3032;49.484;11.112;2023-06-04T11:43:04;33.10;30.20
6008;DHT22;3032;49.484;11.112;2023-06-04T11:45:30;33.00;30.00
6008;DHT22;3032;49.484;11.112;2023-06-04T11:47:57;32.80;30.10
6008;DHT22;3032;49.484;11.112;2023-06-04T11:50:27;31.90;29.90
6008;DHT22;3032;49.484;11.112;2023-06-04T11:52:53;31.50;30.10
6008;DHT22;3032;49.484;11.112;2023-06-04T11:55:20;32.60;29.90
6008;DHT22;3032;49.484;11.112;2023-06-04T11:57:49;33.80;29.40
6008;DHT22;3032;49.484;11.112;2023-06-04T12:00:16;33.60;28.80
6008;DHT22;3032;49.484;11.112;2023-06-04T12:02:53;32.70;29.60
6008;DHT22;3032;49.484;11.112;2023-06-04T12:05:21;31.90;29.80
6008;DHT22;3032;49.484;11.112;2023-06-04T12:07:51;33.00;30.80
6008;DHT22;3032;49.484;11.112;2023-06-04T12:10:18;34.40;29.30
6008;DHT22;3032;49.484;11.112;2023-06-04T12:12:44;35.70;29.40
6008;DHT22;3032;49.484;11.112;2023-06-04T12:15:10;35.90;28.40
6008;DHT22;3032;49.484;11.112;2023-06-04T12:17:36;34.60;28.70
6008;DHT22;3032;49.484;11.112;2023-06-04T12:20:05;33.60;29.20
6008;DHT22;3032;49.484;11.112;2023-06-04T12:22:31;32.60;30.00
6008;DHT22;3032;49.484;11.112;2023-06-04T12:24:57;32.30;30.10
6008;DHT22;3032;49.484;11.112;2023-06-04T12:27:25;31.70;30.60
6008;DHT22;3032;49.484;11.112;2023-06-04T12:29:59;32.20;30.10
6008;DHT22;3032;49.484;11.112;2023-06-04T12:32:25;32.10;29.70
6008;DHT22;3032;49.484;11.112;2023-06-04T12:34:51;31.20;30.10
6008;DHT22;3032;49.484;11.112;2023-06-04T12:37:17;32.10;30.30
6008;DHT22;3032;49.484;11.112;2023-06-04T12:39:42;33.20;29.90
6008;DHT22;3032;49.484;11.112;2023-06-04T12:42:08;33.80;29.10
6008;DHT22;3032;49.484;11.112;2023-06-04T12:44:40;33.60;29.70
6008;DHT22;3032;49.484;11.112;2023-06-04T12:47:07;34.30;29.50
6008;DHT22;3032;49.484;11.112;2023-06-04T12:49:33;33.60;30.00
6008;DHT22;3032;49.484;11.112;2023-06-04T12:51:59;32.60;29.80
6008;DHT22;3032;49.484;11.112;2023-06-04T12:54:24;32.00;30.60
6008;DHT22;3032;49.484;11.112;2023-06-04T12:56:50;31.90;30.60
6008;DHT22;3032;49.484;11.112;2023-06-04T12:59:16;30.50;31.20
6008;DHT22;3032;49.484;11.112;2023-06-04T13:01:42;29.80;31.40
6008;DHT22;3032;49.484;11.112;2023-06-04T13:04:08;30.70;32.20
6008;DHT22;3032;49.484;11.112;2023-06-04T13:06:35;32.40;31.50
6008;DHT22;3032;49.484;11.112;2023-06-04T13:09:01;33.60;31.50
6008;DHT22;3032;49.484;11.112;2023-06-04T13:11:27;34.60;30.20
6008;DHT22;3032;49.484;11.112;2023-06-04T13:13:52;34.90;29.60
6008;DHT22;3032;49.484;11.112;2023-06-04T13:16:18;35.20;30.00
6008;DHT22;3032;49.484;11.112;2023-06-04T13:18:44;34.10;29.80
6008;DHT22;3032;49.484;11.112;2023-06-04T13:21:10;34.00;30.00
6008;DHT22;3032;49.484;11.112;2023-06-04T13:23:35;33.50;30.30
6008;DHT22;3032;49.484;11.112;2023-06-04T13:26:01;34.00;30.00
6008;DHT22;3032;49.484;11.112;2023-06-04T13:28:27;34.40;30.40
6008;DHT22;3032;49.484;11.112;2023-06-04T13:30:52;34.70;30.30
6008;DHT22;3032;49.484;11.112;2023-06-04T13:33:18;34.40;29.50
6008;DHT22;3032;49.484;11.112;2023-06-04T13:35:44;34.10;30.10
6008;DHT22;3032;49.484;11.112;2023-06-04T13:38:10;34.20;29.40
6008;DHT22;3032;49.484;11.112;2023-06-04T13:40:38;34.50;30.00
6008;DHT22;3032;49.484;11.112;2023-06-04T13:43:05;34.70;29.80
6008;DHT22;3032;49.484;11.112;2023-06-04T13:45:35;34.40;29.10
6008;DHT22;3032;49.484;11.112;2023-06-04T13:48:01;33.80;29.40
6008;DHT22;3032;49.484;11.112;2023-06-04T13:50:31;33.80;29.80
6008;DHT22;3032;49.484;11.112;2023-06-04T13:52:56;32.80;30.00
6008;DHT22;3032;49.484;11.112;2023-06-04T13:55:22;31.90;31.50
6008;DHT22;3032;49.484;11.112;2023-06-04T13:57:47;32.30;31.40
6008;DHT22;3032;49.484;11.112;2023-06-04T14:00:14;33.00;30.90
6008;DHT22;3032;49.484;11.112;2023-06-04T14:02:40;32.00;30.90
6008;DHT22;3032;49.484;11.112;2023-06-04T14:05:06;30.80;32.60
6008;DHT22;3032;49.484;11.112;2023-06-04T14:07:32;31.30;31.60
6008;DHT22;3032;49.484;11.112;2023-06-04T14:09:58;31.30;31.20
6008;DHT22;3032;49.484;11.112;2023-06-04T14:12:24;32.20;31.80
6008;DHT22;3032;49.484;11.112;2023-06-04T14:14:50;32.40;30.30
6008;DHT22;3032;49.484;11.112;2023-06-04T14:17:16;33.00;30.40
6008;DHT22;3032;49.484;11.112;2023-06-04T14:19:42;32.80;29.80
6008;DHT22;3032;49.484;11.112;2023-06-04T14:22:09;33.10;30.60
6008;DHT22;3032;49.484;11.112;2023-06-04T14:24:35;33.40;29.90
6008;DHT22;3032;49.484;11.112;2023-06-04T14:27:00;32.10;29.40
6008;DHT22;3032;49.484;11.112;2023-06-04T14:29:26;32.20;29.90
6008;DHT22;3032;49.484;11.112;2023-06-04T14:31:51;31.40;30.30
6008;DHT22;3032;49.484;11.112;2023-06-04T14:34:17;30.20;31.00
6008;DHT22;3032;49.484;11.112;2023-06-04T14:36:42;29.60;31.60
6008;DHT22;3032;49.484;11.112;2023-06-04T14:39:08;29.00;32.50
6008;DHT22;3032;49.484;11.112;2023-06-04T14:41:33;28.80;32.60
6008;DHT22;3032;49.484;11.112;2023-06-04T14:43:59;28.20;33.90
6008;DHT22;3032;49.484;11.112;2023-06-04T14:46:25;28.60;33.70
6008;DHT22;3032;49.484;11.112;2023-06-04T14:48:51;28.60;33.60
6008;DHT22;3032;49.484;11.112;2023-06-04T14:51:16;29.10;33.60
6008;DHT22;3032;49.484;11.112;2023-06-04T14:53:42;29.80;33.20
6008;DHT22;3032;49.484;11.112;2023-06-04T14:56:07;29.50;31.40
6008;DHT22;3032;49.484;11.112;2023-06-04T14:58:33;29.60;32.40
6008;DHT22;3032;49.484;11.112;2023-06-04T15:00:59;29.60;31.70
6008;DHT22;3032;49.484;11.112;2023-06-04T15:03:25;29.60;31.50
6008;DHT22;3032;49.484;11.112;2023-06-04T15:05:51;29.20;33.00
6008;DHT22;3032;49.484;11.112;2023-06-04T15:08:17;29.50;32.40
6008;DHT22;3032;49.484;11.112;2023-06-04T15:10:43;29.70;33.40
6008;DHT22;3032;49.484;11.112;2023-06-04T15:13:09;29.00;34.00
6008;DHT22;3032;49.484;11.112;2023-06-04T15:15:35;27.80;34.60
6008;DHT22;3032;49.484;11.112;2023-06-04T15:18:01;27.70;35.00
6008;DHT22;3032;49.484;11.112;2023-06-04T15:20:26;27.60;35.20
6008;DHT22;3032;49.484;11.112;2023-06-04T15:22:54;27.50;34.80
6008;DHT22;3032;49.484;11.112;2023-06-04T15:25:20;27.80;34.90
6008;DHT22;3032;49.484;11.112;2023-06-04T15:27:45;27.70;36.10
6008;DHT22;3032;49.484;11.112;2023-06-04T15:30:11;26.70;35.90
6008;DHT22;3032;49.484;11.112;2023-06-04T15:32:37;26.40;36.50
6008;DHT22;3032;49.484;11.112;2023-06-04T15:35:03;26.30;36.00
6008;DHT22;3032;49.484;11.112;2023-06-04T15:37:29;26.20;36.20
6008;DHT22;3032;49.484;11.112;2023-06-04T15:39:55;26.20;36.80
6008;DHT22;3032;49.484;11.112;2023-06-04T15:42:23;26.60;36.40
6008;DHT22;3032;49.484;11.112;2023-06-04T15:44:48;27.20;36.90
6008;DHT22;3032;49.484;11.112;2023-06-04T15:47:17;27.20;36.40
6008;DHT22;3032;49.484;11.112;2023-06-04T15:49:43;27.10;36.50